Time;durP1;ratioP1;P1;durP2;ratioP2;P2;SDS_P1;SDS_P2;PMS_P1;PMS_P2;Temp;Humidity;BMP_temperature;BMP_pressure;BME280_temperature;BME280_humidity;BME280_pressure;Samples;Min_cycle;Max_cycle;Signal;HPM_P1;HPM_P2
2022/10/18 00:01:37;;;;;;;4.97;3.83;;;16.60;99.90;;;;;;5107090;28;20459;-81
2022/10/18 00:04:04;;;;;;;7.70;4.67;;;16.70;99.90;;;;;;5120447;28;20477;-80
2022/10/18 00:06:31;;;;;;;5.17;3.77;;;16.60;99.90;;;;;;5128140;28;20473;-81
2022/10/18 00:08:58;;;;;;;5.90;3.73;;;16.60;99.90;;;;;;5119018;28;20926;-80
2022/10/18 00:11:25;;;;;;;5.30;3.87;;;16.60;99.90;;;;;;5108668;28;20537;-80
2022/10/18 00:13:52;;;;;;;4.63;3.80;;;16.60;99.90;;;;;;5106619;28;20463;-80
2022/10/18 00:16:19;;;;;;;6.70;4.50;;;16.60;99.90;;;;;;5118671;28;20509;-81
2022/10/18 00:18:47;;;;;;;8.10;3.70;;;16.60;99.90;;;;;;5115914;28;20552;-81
2022/10/18 00:21:17;;;;;;;6.20;4.00;;;16.70;99.90;;;;;;5113616;28;20453;-80
2022/10/18 00:23:44;;;;;;;6.17;3.90;;;16.70;99.90;;;;;;5122476;28;20460;-80
2022/10/18 00:26:13;;;;;;;3.23;2.93;;;16.60;99.90;;;;;;5118614;28;20477;-81
2022/10/18 00:28:41;;;;;;;5.20;4.23;;;16.60;99.90;;;;;;5115351;28;20464;-80
2022/10/18 00:31:13;;;;;;;5.40;4.03;;;16.60;99.90;;;;;;5102743;28;20859;-81
2022/10/18 00:33:40;;;;;;;3.50;2.97;;;16.60;99.90;;;;;;5121082;28;20455;-79
2022/10/18 00:36:09;;;;;;;7.07;3.90;;;16.60;99.90;;;;;;5102694;28;20465;-81
2022/10/18 00:38:36;;;;;;;6.13;3.67;;;16.60;99.90;;;;;;5107923;28;20516;-80
2022/10/18 00:41:04;;;;;;;4.07;3.60;;;16.60;99.90;;;;;;5082381;28;20862;-80
2022/10/18 00:43:31;;;;;;;5.83;3.30;;;16.60;99.90;;;;;;5093663;28;20479;-81
2022/10/18 00:45:57;;;;;;;5.13;3.93;;;16.60;99.90;;;;;;5123388;28;20894;-80
2022/10/18 00:48:24;;;;;;;3.87;3.43;;;16.60;99.90;;;;;;5113306;28;20469;-81
2022/10/18 00:50:53;;;;;;;5.37;3.57;;;16.60;99.90;;;;;;5111014;28;20477;-81
2022/10/18 00:53:23;;;;;;;6.70;3.60;;;16.60;99.90;;;;;;5103089;28;20434;-80
2022/10/18 00:55:50;;;;;;;4.20;3.30;;;16.60;99.90;;;;;;5109682;28;20448;-81
2022/10/18 00:58:19;;;;;;;3.87;3.47;;;16.60;99.90;;;;;;5112826;28;20465;-80
2022/10/18 01:00:46;;;;;;;4.40;4.00;;;16.60;99.90;;;;;;5122642;28;20459;-81
2022/10/18 01:03:13;;;;;;;5.90;3.83;;;16.60;99.90;;;;;;5121082;28;21047;-80
2022/10/18 01:05:44;;;;;;;3.90;3.30;;;16.60;99.90;;;;;;5113934;28;20464;-80
2022/10/18 01:08:31;;;;;;;5.13;3.20;;;16.60;99.90;;;;;;5102577;28;20549;-80
2022/10/18 01:11:09;;;;;;;5.40;3.17;;;16.60;99.90;;;;;;5081903;28;20485;-80
2022/10/18 01:13:46;;;;;;;3.63;2.73;;;16.60;99.90;;;;;;5100198;28;20535;-80
2022/10/18 01:16:20;;;;;;;3.73;3.00;;;16.60;99.90;;;;;;5101863;28;20481;-81
2022/10/18 01:18:54;;;;;;;5.30;3.00;;;16.60;99.90;;;;;;5107211;28;20455;-81
2022/10/18 01:21:42;;;;;;;3.87;3.47;;;16.60;99.90;;;;;;5106872;28;20659;-81
2022/10/18 01:25:01;;;;;;;4.67;3.03;;;16.50;99.90;;;;;;5106316;28;20524;-81
2022/10/18 01:27:43;;;;;;;6.30;3.40;;;16.50;99.90;;;;;;5119810;28;20866;-81
2022/10/18 01:30:36;;;;;;;4.40;3.37;;;16.50;99.90;;;;;;5104862;28;20564;-80
2022/10/18 01:33:08;;;;;;;4.23;3.40;;;16.50;99.90;;;;;;5107264;28;20833;-81
2022/10/18 01:35:40;;;;;;;5.37;3.67;;;16.50;99.90;;;;;;5107181;28;20451;-81
2022/10/18 01:38:11;;;;;;;7.67;3.70;;;16.60;99.90;;;;;;5121032;28;20517;-79
2022/10/18 01:40:41;;;;;;;4.40;3.60;;;16.50;99.90;;;;;;5126295;28;20436;-81
2022/10/18 01:43:09;;;;;;;3.30;3.00;;;16.50;99.90;;;;;;5125092;28;20987;-80
2022/10/18 01:45:37;;;;;;;5.50;3.23;;;16.50;99.90;;;;;;5116665;28;20452;-81
2022/10/18 01:48:06;;;;;;;3.37;3.03;;;16.50;99.90;;;;;;5123842;28;20540;-79
2022/10/18 01:50:34;;;;;;;4.13;3.00;;;16.50;99.90;;;;;;5119629;28;20477;-80
2022/10/18 01:53:02;;;;;;;3.37;2.73;;;16.50;99.90;;;;;;5113245;28;20455;-80
2022/10/18 01:55:37;;;;;;;6.10;2.67;;;16.50;99.90;;;;;;5125259;28;20516;-79
2022/10/18 01:58:12;;;;;;;6.13;3.10;;;16.50;99.90;;;;;;5114953;28;20487;-80
2022/10/18 02:00:43;;;;;;;4.40;3.20;;;16.50;99.90;;;;;;5125602;28;20449;-81
2022/10/18 02:03:16;;;;;;;6.40;3.33;;;16.50;99.90;;;;;;5108991;28;20962;-80
2022/10/18 02:05:48;;;;;;;4.83;2.83;;;16.50;99.90;;;;;;5116668;28;20459;-80
2022/10/18 02:08:25;;;;;;;3.70;3.40;;;16.50;99.90;;;;;;5110508;28;20465;-81
2022/10/18 02:10:56;;;;;;;4.03;3.60;;;16.50;99.90;;;;;;5121188;28;20484;-80
2022/10/18 02:13:26;;;;;;;3.47;3.17;;;16.40;99.90;;;;;;5123136;28;20495;-81
2022/10/18 02:16:01;;;;;;;4.70;3.07;;;16.40;99.90;;;;;;5115976;28;20447;-80
2022/10/18 02:18:34;;;;;;;5.77;3.17;;;16.50;99.90;;;;;;5101265;28;20998;-79
2022/10/18 02:21:03;;;;;;;5.40;3.00;;;16.50;99.90;;;;;;5104728;28;20532;-81
2022/10/18 02:23:31;;;;;;;2.97;2.33;;;16.50;99.90;;;;;;5103484;28;20450;-81
2022/10/18 02:25:58;;;;;;;4.20;2.50;;;16.50;99.90;;;;;;5111560;28;20448;-81
2022/10/18 02:28:25;;;;;;;5.10;2.70;;;16.40;99.90;;;;;;5115088;28;20559;-80
2022/10/18 02:30:58;;;;;;;4.47;2.73;;;16.40;99.90;;;;;;5115533;28;20488;-80
2022/10/18 02:33:33;;;;;;;2.30;2.10;;;16.50;99.90;;;;;;5123717;28;20444;-80
2022/10/18 02:36:06;;;;;;;5.17;2.93;;;16.40;99.90;;;;;;5124840;28;20455;-81
2022/10/18 02:38:34;;;;;;;4.90;2.80;;;16.40;99.90;;;;;;5122622;28;20467;-80
2022/10/18 02:41:01;;;;;;;3.73;2.60;;;16.50;99.90;;;;;;5115281;28;20449;-80
2022/10/18 02:43:28;;;;;;;5.20;2.50;;;16.50;99.90;;;;;;5113591;28;20456;-80
2022/10/18 02:45:56;;;;;;;3.03;2.53;;;16.40;99.90;;;;;;5126242;28;20550;-80
2022/10/18 02:48:23;;;;;;;4.83;2.27;;;16.50;99.90;;;;;;5121483;28;21079;-80
2022/10/18 02:50:49;;;;;;;4.30;2.70;;;16.50;99.90;;;;;;5110149;28;20537;-81
2022/10/18 02:53:16;;;;;;;2.73;2.43;;;16.40;99.90;;;;;;5129763;28;20455;-80
2022/10/18 02:55:43;;;;;;;3.77;2.53;;;16.50;99.90;;;;;;5122098;28;20509;-80
2022/10/18 02:58:10;;;;;;;5.30;2.77;;;16.50;99.90;;;;;;5116555;28;20549;-80
2022/10/18 03:00:37;;;;;;;3.70;2.63;;;16.50;99.90;;;;;;5109272;28;20448;-81
2022/10/18 03:03:05;;;;;;;3.80;2.30;;;16.50;99.90;;;;;;5108997;28;20529;-80
2022/10/18 03:05:31;;;;;;;4.03;2.80;;;16.50;99.90;;;;;;5126428;28;20494;-79
2022/10/18 03:07:58;;;;;;;4.30;2.90;;;16.50;99.90;;;;;;5127636;28;20544;-81
2022/10/18 03:10:25;;;;;;;7.40;2.97;;;16.50;99.90;;;;;;5109829;28;20556;-81
2022/10/18 03:12:52;;;;;;;3.03;2.73;;;16.40;99.90;;;;;;5116046;28;20515;-79
2022/10/18 03:15:19;;;;;;;3.50;2.70;;;16.50;99.90;;;;;;5125246;28;20444;-81
2022/10/18 03:17:45;;;;;;;3.40;2.50;;;16.50;99.90;;;;;;5106172;28;20529;-80
2022/10/18 03:20:14;;;;;;;4.23;2.90;;;16.50;99.90;;;;;;5107223;28;20475;-81
2022/10/18 03:22:40;;;;;;;4.57;2.73;;;16.40;99.90;;;;;;5111358;28;20454;-79
2022/10/18 03:25:08;;;;;;;6.50;2.90;;;16.40;99.90;;;;;;5126892;28;20527;-81
2022/10/18 03:27:34;;;;;;;3.07;2.60;;;16.50;99.90;;;;;;5121416;28;20474;-80
2022/10/18 03:30:01;;;;;;;3.10;2.67;;;16.50;99.90;;;;;;5112943;28;20485;-80
2022/10/18 03:32:28;;;;;;;4.00;2.90;;;16.50;99.90;;;;;;5107225;28;20895;-80
2022/10/18 03:34:55;;;;;;;5.03;2.77;;;16.50;99.90;;;;;;5107613;28;20545;-81
2022/10/18 03:37:23;;;;;;;6.13;2.90;;;16.40;99.90;;;;;;5109672;28;20484;-80
2022/10/18 03:39:50;;;;;;;4.20;2.83;;;16.40;99.90;;;;;;5109115;28;20954;-80
2022/10/18 03:42:17;;;;;;;4.43;3.33;;;16.40;99.90;;;;;;5107716;28;20523;-81
2022/10/18 03:44:43;;;;;;;3.70;2.70;;;16.50;99.90;;;;;;5108332;28;20463;-80
2022/10/18 03:47:11;;;;;;;3.93;2.77;;;16.50;99.90;;;;;;5107206;28;20503;-81
2022/10/18 03:49:37;;;;;;;2.83;2.50;;;16.50;99.90;;;;;;5119455;28;20485;-80
2022/10/18 03:52:04;;;;;;;5.63;2.80;;;16.50;99.90;;;;;;5105555;28;20489;-79
2022/10/18 03:54:32;;;;;;;6.80;3.57;;;16.50;99.90;;;;;;5100185;28;20537;-80
2022/10/18 03:56:59;;;;;;;6.50;3.07;;;16.50;99.90;;;;;;5108506;28;20557;-80
2022/10/18 03:59:26;;;;;;;5.30;2.93;;;16.50;99.90;;;;;;5103679;28;20454;-80
2022/10/18 04:01:53;;;;;;;3.43;2.73;;;16.50;99.90;;;;;;5119972;28;20552;-80
2022/10/18 04:04:20;;;;;;;5.53;2.90;;;16.50;99.90;;;;;;5111380;28;20471;-80
2022/10/18 04:06:47;;;;;;;3.27;2.60;;;16.50;99.90;;;;;;5104211;28;20548;-80
2022/10/18 04:09:14;;;;;;;3.73;2.90;;;16.50;99.90;;;;;;5124149;28;20561;-80
2022/10/18 04:11:42;;;;;;;6.00;3.20;;;16.50;99.90;;;;;;5122167;28;20476;-79
2022/10/18 04:14:09;;;;;;;4.50;3.50;;;16.50;99.90;;;;;;5117849;28;20529;-80
2022/10/18 04:16:35;;;;;;;3.93;2.40;;;16.50;99.90;;;;;;5118243;28;20461;-80
2022/10/18 04:19:02;;;;;;;3.67;3.07;;;16.50;99.90;;;;;;5111572;28;20456;-80
2022/10/18 04:21:29;;;;;;;3.87;3.33;;;16.50;99.90;;;;;;5106918;28;20504;-80
2022/10/18 04:23:56;;;;;;;4.07;2.70;;;16.50;99.90;;;;;;5105077;28;20550;-80
2022/10/18 04:26:23;;;;;;;4.30;3.90;;;16.50;99.90;;;;;;5117820;28;20515;-79
2022/10/18 04:28:51;;;;;;;3.40;2.67;;;16.50;99.90;;;;;;5117116;28;20460;-79
2022/10/18 04:31:17;;;;;;;4.60;3.57;;;16.40;99.90;;;;;;5106650;28;20479;-80
2022/10/18 04:33:44;;;;;;;4.30;3.43;;;16.50;99.90;;;;;;5109204;28;20456;-80
2022/10/18 04:36:11;;;;;;;5.03;3.70;;;16.50;99.90;;;;;;5119597;28;20536;-79
2022/10/18 04:38:38;;;;;;;4.10;3.27;;;16.40;99.90;;;;;;5102893;28;21020;-80
2022/10/18 04:41:05;;;;;;;6.60;3.20;;;16.40;99.90;;;;;;5107961;28;20519;-79
2022/10/18 04:43:32;;;;;;;3.57;2.80;;;16.40;99.90;;;;;;5114092;28;20466;-78
2022/10/18 04:46:00;;;;;;;4.50;3.70;;;16.50;99.90;;;;;;5127145;28;20471;-78
2022/10/18 04:48:27;;;;;;;4.73;3.23;;;16.40;99.90;;;;;;5112459;28;20464;-79
2022/10/18 04:50:54;;;;;;;5.40;3.90;;;16.50;99.90;;;;;;5122297;28;20568;-79
2022/10/18 04:53:20;;;;;;;5.67;3.50;;;16.50;99.90;;;;;;5118835;28;20513;-80
2022/10/18 04:55:49;;;;;;;4.87;3.57;;;16.40;99.90;;;;;;5103948;28;20543;-79
2022/10/18 04:58:16;;;;;;;4.03;3.20;;;16.50;99.90;;;;;;5120530;28;20492;-81
2022/10/18 05:00:43;;;;;;;4.60;3.83;;;16.50;99.90;;;;;;5103782;28;20961;-81
2022/10/18 05:03:13;;;;;;;7.20;5.50;;;16.40;99.90;;;;;;5103665;28;20457;-80
2022/10/18 05:05:39;;;;;;;5.07;4.23;;;16.50;99.90;;;;;;5102227;28;20957;-80
2022/10/18 05:08:06;;;;;;;5.93;4.07;;;16.50;99.90;;;;;;5101890;28;20476;-79
2022/10/18 05:10:39;;;;;;;5.33;4.10;;;16.50;99.90;;;;;;5124217;28;20484;-80
2022/10/18 05:13:06;;;;;;;6.83;5.20;;;16.40;99.90;;;;;;5121386;28;20618;-80
2022/10/18 05:15:33;;;;;;;5.27;3.83;;;16.40;99.90;;;;;;5121996;28;20539;-83
2022/10/18 05:18:00;;;;;;;6.87;4.57;;;16.40;99.90;;;;;;5116168;28;20473;-78
2022/10/18 05:20:28;;;;;;;8.03;5.23;;;16.50;99.90;;;;;;5103188;28;20457;-80
2022/10/18 05:22:55;;;;;;;8.03;4.90;;;16.50;99.90;;;;;;5116737;28;20535;-79
2022/10/18 05:25:21;;;;;;;5.33;4.50;;;16.50;99.90;;;;;;5101552;28;20482;-80
2022/10/18 05:27:48;;;;;;;4.73;3.97;;;16.50;99.90;;;;;;5119150;28;20843;-77
2022/10/18 05:30:15;;;;;;;5.17;4.53;;;16.50;99.90;;;;;;5123481;28;20974;-79
2022/10/18 05:32:42;;;;;;;6.83;4.90;;;16.50;99.90;;;;;;5107462;28;20477;-80
2022/10/18 05:35:09;;;;;;;7.40;5.17;;;16.50;99.90;;;;;;5110822;28;20518;-81
2022/10/18 05:37:37;;;;;;;8.10;5.87;;;16.40;99.90;;;;;;5114586;28;20479;-81
2022/10/18 05:40:05;;;;;;;7.30;5.70;;;16.40;99.90;;;;;;5103006;28;20466;-79
2022/10/18 05:42:31;;;;;;;5.47;4.50;;;16.50;99.90;;;;;;5104954;28;20738;-79
2022/10/18 05:44:58;;;;;;;8.67;6.77;;;16.40;99.90;;;;;;5103662;28;20544;-80
2022/10/18 05:47:25;;;;;;;7.70;6.60;;;16.50;99.90;;;;;;5108604;28;20488;-79
2022/10/18 05:49:52;;;;;;;10.63;7.83;;;16.50;99.90;;;;;;5111547;28;20458;-80
2022/10/18 05:52:19;;;;;;;8.20;6.33;;;16.50;99.90;;;;;;5103106;28;20500;-79
2022/10/18 05:54:47;;;;;;;11.03;6.60;;;16.50;99.90;;;;;;5112665;28;20486;-79
2022/10/18 05:57:13;;;;;;;8.40;6.83;;;16.40;99.90;;;;;;5114256;28;20567;-79
2022/10/18 05:59:40;;;;;;;7.90;5.93;;;16.50;99.90;;;;;;5106561;28;20706;-79
2022/10/18 06:02:08;;;;;;;8.50;7.03;;;16.40;99.90;;;;;;5109206;28;20540;-79
2022/10/18 06:04:35;;;;;;;7.97;7.00;;;16.40;99.90;;;;;;5108340;28;20499;-79
2022/10/18 06:07:02;;;;;;;9.90;6.80;;;16.40;99.90;;;;;;5113007;28;20478;-79
2022/10/18 06:09:29;;;;;;;9.47;7.67;;;16.40;99.90;;;;;;5107340;28;20528;-78
2022/10/18 06:11:57;;;;;;;9.00;6.67;;;16.40;99.90;;;;;;5105724;28;20484;-79
2022/10/18 06:14:24;;;;;;;9.93;7.40;;;16.40;99.90;;;;;;5097431;28;20457;-79
2022/10/18 06:16:51;;;;;;;10.60;7.20;;;16.40;99.90;;;;;;5107461;28;20480;-79
2022/10/18 06:19:18;;;;;;;9.60;6.63;;;16.50;99.90;;;;;;5111622;28;20467;-81
2022/10/18 06:21:45;;;;;;;7.83;6.37;;;16.40;99.90;;;;;;5113395;28;21035;-81
2022/10/18 06:24:11;;;;;;;9.97;7.63;;;16.50;99.90;;;;;;5122128;28;20540;-81
2022/10/18 06:26:38;;;;;;;9.10;7.03;;;16.50;99.90;;;;;;5111957;28;20547;-80
2022/10/18 06:29:06;;;;;;;8.90;7.47;;;16.50;99.90;;;;;;5102102;28;20520;-80
2022/10/18 06:31:33;;;;;;;8.90;6.83;;;16.50;99.90;;;;;;5101510;28;20565;-80
2022/10/18 06:34:01;;;;;;;9.37;7.20;;;16.50;99.90;;;;;;5109619;28;20458;-81
2022/10/18 06:36:29;;;;;;;9.20;6.80;;;16.50;99.90;;;;;;5107447;28;20467;-81
2022/10/18 06:38:56;;;;;;;8.73;6.80;;;16.50;99.90;;;;;;5109468;28;20464;-80
2022/10/18 06:41:23;;;;;;;8.83;7.63;;;16.50;99.90;;;;;;5113608;28;20474;-81
2022/10/18 06:43:51;;;;;;;9.23;7.40;;;16.50;99.90;;;;;;5119968;28;20492;-81
2022/10/18 06:46:20;;;;;;;6.93;6.30;;;16.50;99.90;;;;;;5113280;28;20495;-80
2022/10/18 06:48:46;;;;;;;9.63;7.27;;;16.50;99.90;;;;;;5112570;28;20456;-81
2022/10/18 06:51:14;;;;;;;12.33;7.87;;;16.50;99.90;;;;;;5113691;28;20491;-80
2022/10/18 06:53:41;;;;;;;7.00;6.13;;;16.50;99.90;;;;;;5113735;28;20489;-81
2022/10/18 06:56:11;;;;;;;14.20;7.57;;;16.50;99.90;;;;;;5121860;28;20509;-80
2022/10/18 06:58:39;;;;;;;12.53;8.23;;;16.50;99.90;;;;;;5119982;28;20457;-80
2022/10/18 07:01:07;;;;;;;8.43;7.00;;;16.50;99.90;;;;;;5129592;28;20424;-79
2022/10/18 07:03:36;;;;;;;11.20;8.10;;;16.50;99.90;;;;;;5133813;28;20465;-80
2022/10/18 07:06:03;;;;;;;11.20;7.37;;;16.60;99.90;;;;;;5129036;28;20435;-79
2022/10/18 07:08:30;;;;;;;9.00;8.10;;;16.60;99.90;;;;;;5126684;28;20473;-80
2022/10/18 07:10:57;;;;;;;11.40;8.53;;;16.60;99.90;;;;;;5118428;28;20870;-81
2022/10/18 07:13:25;;;;;;;15.80;10.30;;;16.60;99.90;;;;;;5105263;28;20539;-81
2022/10/18 07:16:01;;;;;;;13.00;9.20;;;16.60;99.90;;;;;;5119793;28;20448;-80
2022/10/18 07:18:28;;;;;;;12.37;8.57;;;16.60;99.90;;;;;;5116715;28;20464;-81
2022/10/18 07:21:05;;;;;;;10.73;8.57;;;16.60;99.90;;;;;;5098771;28;20452;-80
2022/10/18 07:23:51;;;;;;;9.90;8.30;;;16.70;99.90;;;;;;5110101;28;20565;-80
2022/10/18 07:26:20;;;;;;;15.20;8.47;;;16.60;99.90;;;;;;5099902;28;20818;-81
2022/10/18 07:28:49;;;;;;;13.27;9.43;;;16.70;99.90;;;;;;5102492;28;20461;-82
2022/10/18 07:31:16;;;;;;;13.17;9.60;;;16.70;99.90;;;;;;5120392;28;20492;-80
2022/10/18 07:33:43;;;;;;;12.93;10.60;;;16.70;99.90;;;;;;5110015;28;20493;-82
2022/10/18 07:36:12;;;;;;;11.83;9.40;;;16.70;99.90;;;;;;5121467;28;21022;-81
2022/10/18 07:38:40;;;;;;;12.83;10.10;;;16.70;99.90;;;;;;5101578;28;20467;-79
2022/10/18 07:41:08;;;;;;;15.60;11.60;;;16.70;99.90;;;;;;5104759;28;20453;-79
2022/10/18 07:43:36;;;;;;;16.77;11.87;;;16.70;99.90;;;;;;5109752;28;20458;-79
2022/10/18 07:46:04;;;;;;;15.57;12.13;;;16.80;99.90;;;;;;5110913;28;20568;-79
2022/10/18 07:48:31;;;;;;;17.83;12.00;;;16.80;99.90;;;;;;5106359;28;20919;-80
2022/10/18 07:50:59;;;;;;;16.40;11.60;;;16.80;99.90;;;;;;5110017;28;20446;-80
2022/10/18 07:53:28;;;;;;;17.13;11.00;;;16.80;99.90;;;;;;5108017;28;21477;-80
2022/10/18 07:56:00;;;;;;;15.63;11.77;;;16.90;99.90;;;;;;5104909;28;20548;-79
2022/10/18 07:58:27;;;;;;;20.07;11.73;;;16.90;99.90;;;;;;5103852;28;20485;-80
2022/10/18 08:00:54;;;;;;;14.70;12.33;;;17.00;99.90;;;;;;5111791;28;20458;-79
2022/10/18 08:03:21;;;;;;;23.13;14.90;;;17.00;99.90;;;;;;5102919;28;20468;-80
2022/10/18 08:05:52;;;;;;;18.87;13.80;;;17.00;99.90;;;;;;5106856;28;20461;-80
2022/10/18 08:08:20;;;;;;;22.37;16.13;;;17.00;99.90;;;;;;5104899;28;20477;-80
2022/10/18 08:10:48;;;;;;;20.43;14.23;;;17.00;99.90;;;;;;5100840;28;20453;-80
2022/10/18 08:13:15;;;;;;;17.70;13.93;;;17.00;99.90;;;;;;5108790;28;20491;-81
2022/10/18 08:15:42;;;;;;;17.07;13.07;;;17.00;99.90;;;;;;5111990;28;20445;-79
2022/10/18 08:18:09;;;;;;;18.23;14.17;;;17.00;99.90;;;;;;5116266;28;20528;-79
2022/10/18 08:20:36;;;;;;;17.60;12.47;;;17.00;99.90;;;;;;5110902;28;20447;-80
2022/10/18 08:23:04;;;;;;;17.80;14.30;;;17.00;99.90;;;;;;5111861;28;20452;-80
2022/10/18 08:25:31;;;;;;;21.77;15.73;;;17.00;99.90;;;;;;5108051;28;20866;-79
2022/10/18 08:28:00;;;;;;;20.60;14.27;;;17.00;99.90;;;;;;5096555;28;20549;-79
2022/10/18 08:30:30;;;;;;;22.40;15.57;;;17.00;99.90;;;;;;5112839;28;20446;-79
2022/10/18 08:32:57;;;;;;;24.00;15.73;;;17.00;99.90;;;;;;5112148;27;20539;-78
2022/10/18 08:35:23;;;;;;;22.30;15.50;;;17.00;99.90;;;;;;5111326;28;20458;-79
2022/10/18 08:37:50;;;;;;;27.33;17.00;;;17.00;99.90;;;;;;5116235;28;20475;-79
2022/10/18 08:40:17;;;;;;;24.50;16.63;;;17.10;99.90;;;;;;5114401;28;20454;-78
2022/10/18 08:42:58;;;;;;;31.23;19.47;;;17.10;99.90;;;;;;5111454;28;20450;-79
2022/10/18 08:45:30;;;;;;;28.07;20.10;;;17.10;99.90;;;;;;5124225;28;20443;-80
2022/10/18 08:48:00;;;;;;;31.73;19.50;;;17.00;99.90;;;;;;5112552;28;20469;-80
2022/10/18 08:50:34;;;;;;;23.50;17.73;;;17.00;99.90;;;;;;5121474;28;20982;-79
2022/10/18 08:53:05;;;;;;;43.70;24.90;;;17.00;99.90;;;;;;5114425;28;20791;-79
2022/10/18 08:55:39;;;;;;;37.60;22.07;;;16.90;99.90;;;;;;5114540;28;20531;-79
2022/10/18 08:58:17;;;;;;;31.90;21.73;;;16.90;99.90;;;;;;5112194;28;20545;-79
2022/10/18 09:00:54;;;;;;;41.80;23.90;;;16.90;99.90;;;;;;5104651;28;20461;-79
2022/10/18 09:03:33;;;;;;;32.17;22.57;;;17.00;99.90;;;;;;5106546;28;20539;-79
2022/10/18 09:06:10;;;;;;;28.00;19.87;;;17.00;99.90;;;;;;5105576;28;20457;-79
2022/10/18 09:08:50;;;;;;;33.07;20.70;;;17.00;99.90;;;;;;5116882;28;20479;-80
2022/10/18 09:11:31;;;;;;;30.10;21.17;;;17.00;99.90;;;;;;5107908;28;20467;-79
2022/10/18 09:14:32;;;;;;;34.00;21.97;;;17.00;99.90;;;;;;5106805;28;20449;-80
2022/10/18 09:17:11;;;;;;;42.50;27.30;;;17.00;99.90;;;;;;5096070;28;20480;-80
2022/10/18 09:20:03;;;;;;;45.73;26.80;;;17.10;99.90;;;;;;5104954;28;20449;-79
2022/10/18 09:22:46;;;;;;;40.57;27.53;;;17.00;99.90;;;;;;5111463;28;20480;-79
2022/10/18 09:25:18;;;;;;;38.77;25.27;;;17.10;99.90;;;;;;5125647;28;20637;-79
2022/10/18 09:27:53;;;;;;;52.40;29.67;;;17.10;99.90;;;;;;5116456;28;20477;-79
2022/10/18 09:30:35;;;;;;;42.00;26.83;;;17.10;99.90;;;;;;5125717;28;20441;-80
2022/10/18 09:33:25;;;;;;;51.17;27.13;;;17.10;99.90;;;;;;5115472;28;20484;-80
2022/10/18 09:35:56;;;;;;;39.97;26.07;;;16.90;99.90;;;;;;5104479;28;20467;-79
2022/10/18 09:38:27;;;;;;;40.27;27.47;;;16.90;99.90;;;;;;5114263;28;20473;-79
2022/10/18 09:40:56;;;;;;;39.63;25.10;;;17.00;99.90;;;;;;5106173;28;20455;-79
2022/10/18 09:43:26;;;;;;;39.63;27.37;;;17.00;99.90;;;;;;5114353;28;20452;-80
2022/10/18 09:45:55;;;;;;;40.43;26.30;;;17.10;99.90;;;;;;5105152;28;20482;-79
2022/10/18 09:48:28;;;;;;;39.97;26.33;;;17.20;99.90;;;;;;5108515;28;20856;-78
2022/10/18 09:50:58;;;;;;;40.90;26.13;;;17.20;99.90;;;;;;5083535;28;20475;-80
2022/10/18 09:53:36;;;;;;;45.93;26.90;;;17.30;99.90;;;;;;5096122;28;20484;-80
2022/10/18 09:56:06;;;;;;;39.60;25.37;;;17.30;99.90;;;;;;5125119;28;20447;-80
2022/10/18 09:58:42;;;;;;;38.23;26.43;;;17.40;99.90;;;;;;5098508;28;20538;-81
2022/10/18 10:01:12;;;;;;;42.77;27.43;;;17.50;99.90;;;;;;5084854;28;20446;-81
2022/10/18 10:03:41;;;;;;;44.17;30.73;;;17.50;99.90;;;;;;5116496;28;20520;-80
2022/10/18 10:06:24;;;;;;;44.00;28.40;;;17.40;99.90;;;;;;5115546;28;20465;-79
2022/10/18 10:08:57;;;;;;;48.07;29.13;;;17.40;99.90;;;;;;5124599;28;20509;-79
2022/10/18 10:11:34;;;;;;;36.97;25.57;;;17.50;99.90;;;;;;5125800;28;20455;-80
2022/10/18 10:14:14;;;;;;;39.57;27.10;;;17.60;99.90;;;;;;5104947;28;20482;-79
2022/10/18 10:17:01;;;;;;;37.73;25.83;;;17.70;99.90;;;;;;5113256;28;20467;-78
2022/10/18 10:19:33;;;;;;;35.07;25.27;;;17.70;99.90;;;;;;5120703;28;20439;-79
2022/10/18 10:22:03;;;;;;;51.73;32.13;;;17.80;99.90;;;;;;5106039;28;20456;-80
2022/10/18 10:24:40;;;;;;;61.23;34.77;;;17.60;99.90;;;;;;5125793;28;20450;-80
2022/10/18 10:27:15;;;;;;;49.83;28.80;;;17.50;99.90;;;;;;5113596;28;20558;-79
2022/10/18 10:29:57;;;;;;;40.93;25.37;;;17.50;99.90;;;;;;5106872;28;20520;-78
2022/10/18 10:32:29;;;;;;;40.57;28.80;;;17.60;99.90;;;;;;5097513;28;20507;-79
2022/10/18 10:34:58;;;;;;;35.43;25.63;;;17.60;99.90;;;;;;5101079;28;20968;-79
2022/10/18 10:37:31;;;;;;;43.20;30.30;;;17.50;99.90;;;;;;5114668;28;20474;-79
2022/10/18 10:40:13;;;;;;;41.37;28.37;;;17.40;99.90;;;;;;5122310;28;20459;-78
2022/10/18 10:42:54;;;;;;;38.83;28.67;;;17.40;99.90;;;;;;5121467;28;20436;-78
2022/10/18 10:45:22;;;;;;;37.67;26.77;;;17.30;99.90;;;;;;5120881;28;20450;-79
2022/10/18 10:47:49;;;;;;;42.57;28.90;;;17.30;99.90;;;;;;5103464;28;20481;-78
2022/10/18 10:50:25;;;;;;;34.90;27.37;;;17.40;99.90;;;;;;5109038;28;20458;-79
2022/10/18 10:52:55;;;;;;;45.43;28.87;;;17.60;99.90;;;;;;5104415;28;20475;-79
2022/10/18 10:55:27;;;;;;;37.83;25.90;;;17.70;99.90;;;;;;5112813;28;20527;-80
2022/10/18 10:57:55;;;;;;;47.80;31.83;;;17.90;99.90;;;;;;5119116;28;20467;-83
2022/10/18 11:00:40;;;;;;;49.43;32.67;;;17.80;99.90;;;;;;5107794;28;20786;-80
2022/10/18 11:03:13;;;;;;;53.43;33.67;;;17.90;99.90;;;;;;5128167;28;20445;-80
2022/10/18 11:05:46;;;;;;;46.43;30.70;;;17.90;99.90;;;;;;5117469;28;20522;-80
2022/10/18 11:08:16;;;;;;;45.33;30.63;;;18.10;99.90;;;;;;5116924;28;20522;-80
2022/10/18 11:10:54;;;;;;;40.67;27.27;;;18.00;99.90;;;;;;5135536;28;20470;-80
2022/10/18 11:13:31;;;;;;;37.93;27.80;;;18.10;99.90;;;;;;5136089;28;20478;-80
2022/10/18 11:16:04;;;;;;;35.40;25.93;;;18.40;99.90;;;;;;5117113;28;20444;-81
2022/10/18 11:18:37;;;;;;;34.00;26.20;;;18.70;99.90;;;;;;5110604;28;20471;-80
2022/10/18 11:21:10;;;;;;;29.37;24.10;;;19.20;99.90;;;;;;5112882;28;20564;-80
2022/10/18 11:23:39;;;;;;;35.87;27.93;;;20.20;99.90;;;;;;5110407;28;20506;-80
2022/10/18 11:26:24;;;;;;;34.80;26.77;;;21.10;99.90;;;;;;5124356;28;20544;-80
2022/10/18 11:29:08;;;;;;;24.73;21.33;;;21.20;99.90;;;;;;5109343;28;20547;-81
2022/10/18 11:31:39;;;;;;;30.33;24.00;;;20.90;99.90;;;;;;5130124;28;20445;-81
2022/10/18 11:34:46;;;;;;;29.63;23.80;;;20.70;99.90;;;;;;5128519;28;20564;-80
2022/10/18 11:37:30;;;;;;;26.10;22.70;;;21.20;99.90;;;;;;5064597;28;20466;-80
2022/10/18 11:40:09;;;;;;;25.63;22.93;;;21.30;99.90;;;;;;5095336;28;20528;-80
2022/10/18 11:42:50;;;;;;;26.33;23.00;;;21.40;99.90;;;;;;5112942;28;20833;-81
2022/10/18 11:45:33;;;;;;;30.10;24.13;;;22.10;99.90;;;;;;5090827;28;20453;-80
2022/10/18 11:48:13;;;;;;;26.23;23.53;;;23.00;99.90;;;;;;5105716;28;20470;-81
2022/10/18 11:50:48;;;;;;;28.17;22.97;;;23.60;99.90;;;;;;5116140;28;20460;-79
2022/10/18 11:53:25;;;;;;;21.17;18.90;;;24.60;99.90;;;;;;5115099;28;20485;-81
2022/10/18 11:56:01;;;;;;;17.57;15.73;;;25.10;99.90;;;;;;5116389;28;20963;-80
2022/10/18 11:58:59;;;;;;;21.73;18.60;;;25.60;99.90;;;;;;5120097;28;20469;-81
2022/10/18 12:01:34;;;;;;;19.47;16.53;;;26.50;99.90;;;;;;5088278;28;20461;-80
2022/10/18 12:04:07;;;;;;;17.03;15.43;;;26.80;99.90;;;;;;5119531;28;20452;-81
2022/10/18 12:06:36;;;;;;;14.50;13.00;;;27.30;99.90;;;;;;5104575;28;20473;-80
2022/10/18 12:09:14;;;;;;;15.17;13.57;;;28.00;99.90;;;;;;5107555;28;20462;-80
2022/10/18 12:11:46;;;;;;;18.33;14.13;;;28.70;99.90;;;;;;5118578;28;20580;-80
2022/10/18 12:14:26;;;;;;;18.03;14.53;;;28.00;99.90;;;;;;5105897;28;20855;-81
2022/10/18 12:16:57;;;;;;;14.97;13.43;;;26.80;99.90;;;;;;5108080;28;21000;-81
2022/10/18 12:19:27;;;;;;;12.47;10.43;;;26.50;99.90;;;;;;5110335;28;20454;-81
2022/10/18 12:21:56;;;;;;;15.50;10.87;;;26.90;99.90;;;;;;5106940;28;20430;-81
2022/10/18 12:24:27;;;;;;;15.60;13.10;;;27.40;99.90;;;;;;5110868;28;21024;-81
2022/10/18 12:26:58;;;;;;;10.50;9.43;;;27.20;99.90;;;;;;5118519;28;20555;-81
2022/10/18 12:29:31;;;;;;;12.10;10.90;;;27.50;99.90;;;;;;5103215;28;20857;-80
2022/10/18 12:32:02;;;;;;;11.80;10.50;;;27.20;99.90;;;;;;5101551;28;20449;-81
2022/10/18 12:34:38;;;;;;;11.70;9.53;;;26.80;99.90;;;;;;5104372;28;20494;-80
2022/10/18 12:37:26;;;;;;;12.27;10.17;;;26.30;99.90;;;;;;5083617;28;20479;-80
2022/10/18 12:39:59;;;;;;;17.13;10.30;;;25.50;99.90;;;;;;5101039;28;20454;-80
2022/10/18 12:42:29;;;;;;;11.80;10.50;;;24.70;99.90;;;;;;5103934;28;20485;-80
2022/10/18 12:45:05;;;;;;;12.83;8.17;;;24.50;99.90;;;;;;5103920;28;20464;-81
2022/10/18 12:47:32;;;;;;;11.63;7.27;;;24.80;99.90;;;;;;5096845;28;20496;-81
2022/10/18 12:50:01;;;;;;;8.30;5.60;;;25.50;99.90;;;;;;5102718;28;20513;-81
2022/10/18 12:52:32;;;;;;;8.67;5.07;;;25.90;99.90;;;;;;5102578;28;20446;-80
2022/10/18 12:55:23;;;;;;;9.53;4.67;;;25.90;99.90;;;;;;5102594;28;20442;-80
2022/10/18 12:58:25;;;;;;;6.90;4.00;;;26.40;99.90;;;;;;5095102;28;20536;-80